Galliano, LA

7:29 PM CST on February 26, 2017 (GMT -0600)
Galliano

Weather History for KGAO - February, 2013

Change the Weather History Date:

Wednesday, February 27, 2013

  Actual Average (KHUM) Record (KHUM)
Temperature  
Mean Temperature 56 °F -  
Max Temperature 66 °F 68 °F 84 °F (1962)
Min Temperature 46 °F 48 °F 25 °F (1935)
Degree Days  
Heating Degree Days 9    
Growing Degree Days 6 (Base 50)    
Moisture  
Dew Point 49 °F    
Average Humidity 78    
Maximum Humidity 100    
Minimum Humidity 43    
Precipitation  
Precipitation 0.00 in - - ()
Sea Level Pressure  
Sea Level Pressure 29.99 in    
Wind  
Wind Speed 3 mph (SSW)    
Max Wind Speed 16 mph    
Max Gust Speed 20 mph    
Visibility 9 miles    
Events      
Averages and records for this station are not official NWS values.
T = Trace of Precipitation, MM = Missing Value Source: NWS Daily Summary

Daily Weather History Graph

Daily Weather History Graph

Search for Another Location

Airport or City:

Trip Planner

Search our weather history database for the weather conditions in past years. The results will help you decide how hot, cold, wet, or windy it might be!

Date:

Astronomy

Feb. 27, 2013 Rise Set
Actual Time 6:28 AM CST 5:59 PM CST
Civil Twilight 6:04 AM CST 6:23 PM CST
Nautical Twilight 5:36 AM CST 6:50 PM CST
Astronomical Twilight 5:09 AM CST 7:18 PM CST
Moon 8:05 PM CST 7:16 AM CST
Length of Visible Light 12h 18m
Length of Day
11h 30m
Waning Gibbous, 96% of the Moon is Illuminated
Feb 27
Waning Gibbous
Mar 4
Last Quarter
Mar 11
New
Mar 19
First Quarter
Mar 27
Full

Hourly Weather History & Observations

Time (CST) Temp. Windchill Dew Point Humidity Pressure Visibility Wind Dir Wind Speed Gust Speed Precip Events Conditions
12:15 AM 53.6 °F - 50.0 °F 88% 29.95 in 10.0 mi SW 3.5 mph - N/A   Unknown
12:35 AM 53.6 °F - 50.0 °F 88% 29.95 in 10.0 mi Calm Calm - N/A   Unknown
12:55 AM 51.8 °F - 48.2 °F 88% 29.94 in 10.0 mi Calm Calm - N/A   Unknown
1:15 AM 51.8 °F - 50.0 °F 94% 29.94 in 10.0 mi Calm Calm - N/A   Unknown
1:35 AM 50.0 °F - 48.2 °F 94% 29.94 in 10.0 mi Calm Calm - N/A   Unknown
1:55 AM 51.8 °F - 50.0 °F 94% 29.94 in 10.0 mi Calm Calm - N/A   Unknown
2:15 AM 50.0 °F - 48.2 °F 94% 29.94 in 10.0 mi Calm Calm - N/A   Unknown
2:35 AM 50.0 °F - 50.0 °F 100% 29.94 in 10.0 mi Calm Calm - N/A   Unknown
2:55 AM 50.0 °F - 48.2 °F 94% 29.94 in 10.0 mi Calm Calm - N/A   Unknown
3:15 AM 46.4 °F - 46.4 °F 100% 29.94 in 10.0 mi Calm Calm - N/A   Unknown
3:35 AM 46.4 °F - 46.4 °F 100% 29.94 in 10.0 mi Calm Calm - N/A   Unknown
3:55 AM 46.4 °F - 46.4 °F 100% 29.95 in 3.0 mi Calm Calm - N/A   Mist
4:15 AM 46.4 °F - 46.4 °F 100% 29.95 in 1.8 mi Calm Calm - N/A   Mist
4:55 AM 46.4 °F - 46.4 °F 100% 29.97 in 2.5 mi Calm Calm - N/A   Mist
5:15 AM 48.2 °F - 48.2 °F 100% 29.97 in 5.0 mi Calm Calm - N/A   Mist
5:35 AM 46.4 °F - 46.4 °F 100% 29.97 in 10.0 mi Calm Calm - N/A   Unknown
5:55 AM 46.4 °F - 46.4 °F 100% 29.97 in 7.0 mi Calm Calm - N/A   Unknown
6:15 AM 46.4 °F - 46.4 °F 100% 29.97 in 7.0 mi Calm Calm - N/A   Unknown
6:35 AM 46.4 °F - 46.4 °F 100% 29.99 in 7.0 mi Calm Calm - N/A   Unknown
6:55 AM 46.4 °F 44.3 °F 46.4 °F 100% 29.99 in 7.0 mi NW 4.6 mph - N/A   Unknown
7:15 AM 50.0 °F - 50.0 °F 100% 29.99 in 10.0 mi Calm Calm - N/A   Unknown
7:35 AM 51.8 °F - 50.0 °F 94% 30.00 in 10.0 mi Calm Calm - N/A   Unknown
7:55 AM 51.8 °F - 51.8 °F 100% 30.01 in 10.0 mi Calm Calm - N/A   Unknown
8:15 AM 53.6 °F - 51.8 °F 94% 30.02 in 10.0 mi Calm Calm - N/A   Unknown
8:35 AM 55.4 °F - 51.8 °F 88% 30.03 in 10.0 mi Calm Calm - N/A   Unknown
9:15 AM 59.0 °F - 50.0 °F 72% 30.04 in 10.0 mi ENE 3.5 mph - N/A   Unknown
9:35 AM 60.8 °F - 48.2 °F 63% 30.04 in 10.0 mi SE 5.8 mph - N/A   Unknown
9:55 AM 60.8 °F - 44.6 °F 55% 30.05 in 10.0 mi Calm Calm - N/A   Unknown
10:15 AM 62.6 °F - 46.4 °F 55% 30.04 in 10.0 mi Calm Calm - N/A   Unknown
10:35 AM 62.6 °F - 44.6 °F 52% 30.04 in 10.0 mi SE 3.5 mph - N/A   Unknown
10:55 AM 64.4 °F - 46.4 °F 52% 30.05 in 10.0 mi South 5.8 mph - N/A   Unknown
11:15 AM 64.4 °F - 42.8 °F 45% 30.04 in 10.0 mi South 9.2 mph - N/A   Unknown
11:35 AM 64.4 °F - 44.6 °F 49% 30.04 in 10.0 mi SSW 5.8 mph - N/A   Unknown
11:55 AM 64.4 °F - 44.6 °F 49% 30.04 in 10.0 mi SW 8.1 mph - N/A   Unknown
12:15 PM 66.2 °F - 42.8 °F 43% 30.03 in 10.0 mi South 9.2 mph - N/A   Unknown
12:35 PM 64.4 °F - 44.6 °F 49% 30.02 in 10.0 mi SSW 9.2 mph - N/A   Unknown
12:55 PM 66.2 °F - 44.6 °F 46% 30.02 in 10.0 mi SW 8.1 mph - N/A   Unknown
1:15 PM 66.2 °F - 42.8 °F 43% 30.01 in 10.0 mi South 8.1 mph - N/A   Unknown
1:35 PM 66.2 °F - 42.8 °F 43% 30.00 in 10.0 mi SSW 9.2 mph - N/A   Unknown
1:55 PM 66.2 °F - 44.6 °F 46% 30.00 in 10.0 mi South 8.1 mph 16.1 mph N/A   Unknown
2:15 PM 66.2 °F - 46.4 °F 49% 29.99 in 10.0 mi SSW 8.1 mph - N/A   Unknown
2:35 PM 64.4 °F - 44.6 °F 49% 29.99 in 10.0 mi SSW 11.5 mph 16.1 mph N/A   Unknown
2:55 PM 64.4 °F - 44.6 °F 49% 29.99 in 10.0 mi SSW 11.5 mph - N/A   Unknown
3:15 PM 64.4 °F - 46.4 °F 52% 29.98 in 10.0 mi South 12.7 mph - N/A   Unknown
3:35 PM 66.2 °F - 44.6 °F 46% 29.98 in 10.0 mi South 10.4 mph - N/A   Unknown
3:55 PM 64.4 °F - 46.4 °F 52% 29.97 in 10.0 mi South 11.5 mph - N/A   Unknown
4:15 PM 64.4 °F - 48.2 °F 56% 29.98 in 10.0 mi SSW 12.7 mph - N/A   Unknown
4:35 PM 64.4 °F - 48.2 °F 56% 29.97 in 10.0 mi SSW 16.1 mph 19.6 mph N/A   Unknown
4:55 PM 62.6 °F - 48.2 °F 59% 29.98 in 10.0 mi SSW 12.7 mph - N/A   Unknown
5:15 PM 62.6 °F - 50.0 °F 63% 29.98 in 10.0 mi SSW 11.5 mph 18.4 mph N/A   Unknown
5:35 PM 60.8 °F - 51.8 °F 72% 29.99 in 10.0 mi SSW 12.7 mph 18.4 mph N/A   Unknown
5:55 PM 60.8 °F - 51.8 °F 72% 29.99 in 10.0 mi SSW 11.5 mph - N/A   Unknown
6:15 PM 60.8 °F - 51.8 °F 72% 29.99 in 10.0 mi SSW 10.4 mph - N/A   Unknown
6:35 PM 59.0 °F - 51.8 °F 77% 29.99 in 10.0 mi SSW 9.2 mph - N/A   Unknown
6:55 PM 59.0 °F - 51.8 °F 77% 30.00 in 10.0 mi SW 5.8 mph - N/A   Unknown
7:15 PM 57.2 °F - 53.6 °F 88% 30.00 in 10.0 mi SSW 5.8 mph - N/A   Unknown
7:35 PM 55.4 °F - 51.8 °F 88% 30.01 in 10.0 mi SW 3.5 mph - N/A   Unknown
7:55 PM 55.4 °F - 51.8 °F 88% 30.00 in 10.0 mi SW 3.5 mph - N/A   Unknown
8:15 PM 55.4 °F - 51.8 °F 88% 30.01 in 10.0 mi SW 3.5 mph - N/A   Unknown
8:35 PM 55.4 °F - 51.8 °F 88% 30.01 in 10.0 mi SW 3.5 mph - N/A   Unknown
8:55 PM 55.4 °F - 51.8 °F 88% 30.02 in 10.0 mi Calm Calm - N/A   Unknown
9:15 PM 55.4 °F - 51.8 °F 88% 30.02 in 10.0 mi Calm Calm - N/A   Unknown
9:35 PM 55.4 °F - 53.6 °F 94% 30.03 in 10.0 mi Calm Calm - N/A   Unknown
9:55 PM 55.4 °F - 53.6 °F 94% 30.02 in 10.0 mi Calm Calm - N/A   Unknown
10:15 PM 55.4 °F - 51.8 °F 88% 30.02 in 10.0 mi Calm Calm - N/A   Unknown
10:35 PM 55.4 °F - 53.6 °F 94% 30.02 in 10.0 mi Calm Calm - N/A   Unknown
10:55 PM 53.6 °F - 51.8 °F 94% 30.01 in 10.0 mi Calm Calm - N/A   Unknown
11:15 PM 55.4 °F - 53.6 °F 94% 30.01 in 10.0 mi Calm Calm - N/A   Unknown
11:35 PM 53.6 °F - 51.8 °F 94% 30.02 in 7.0 mi SW 3.5 mph - N/A   Unknown
11:55 PM 57.2 °F - 55.4 °F 94% 30.03 in 10.0 mi West 10.4 mph - N/A   Unknown